Time;durP1;ratioP1;P1;durP2;ratioP2;P2;SDS_P1;SDS_P2;PMS_P1;PMS_P2;Temp;Humidity;BMP_temperature;BMP_pressure;BME280_temperature;BME280_humidity;BME280_pressure;Samples;Min_cycle;Max_cycle;Signal;HPM_P1;HPM_P2
2023/07/19 00:00:14;;;;;;;5.83;5.33;;;29.00;63.40;;;;;;5046671;28;20464;-68
2023/07/19 00:02:46;;;;;;;5.20;4.70;;;29.00;63.60;;;;;;5024500;28;20463;-67
2023/07/19 00:05:14;;;;;;;5.17;4.57;;;29.00;63.60;;;;;;5040469;28;21173;-67
2023/07/19 00:07:43;;;;;;;6.30;5.20;;;28.90;63.50;;;;;;5052544;28;20480;-68
2023/07/19 00:10:11;;;;;;;5.33;4.83;;;28.90;63.60;;;;;;5048480;28;20454;-68
2023/07/19 00:12:39;;;;;;;6.43;5.77;;;28.90;63.60;;;;;;5047151;28;20469;-67
2023/07/19 00:15:22;;;;;;;5.83;4.97;;;28.90;63.60;;;;;;5041202;28;20536;-69
2023/07/19 00:17:52;;;;;;;4.83;4.43;;;28.90;63.60;;;;;;5051724;28;20494;-67
2023/07/19 00:20:20;;;;;;;4.40;4.03;;;28.90;63.70;;;;;;5043753;28;20484;-68
2023/07/19 00:22:49;;;;;;;5.20;4.70;;;28.90;63.70;;;;;;5046216;28;20820;-67
2023/07/19 00:25:17;;;;;;;4.93;4.53;;;28.90;63.70;;;;;;5049331;28;20487;-68
2023/07/19 00:27:48;;;;;;;6.50;5.90;;;28.90;63.70;;;;;;5054329;28;20517;-68
2023/07/19 00:30:17;;;;;;;5.93;5.37;;;28.90;63.80;;;;;;5029471;28;20551;-69
2023/07/19 00:32:46;;;;;;;5.00;4.60;;;28.90;63.70;;;;;;5050042;28;20493;-68
2023/07/19 00:35:15;;;;;;;6.57;4.40;;;28.80;63.80;;;;;;5050908;28;20493;-68
2023/07/19 00:37:44;;;;;;;5.07;4.67;;;28.80;63.80;;;;;;5044948;28;20510;-71
2023/07/19 00:40:13;;;;;;;5.27;4.77;;;28.80;63.90;;;;;;5052266;28;20541;-68
2023/07/19 00:42:41;;;;;;;5.17;4.73;;;28.80;63.90;;;;;;5041219;28;20463;-67
2023/07/19 00:45:10;;;;;;;5.47;4.90;;;28.80;63.80;;;;;;5046941;28;20462;-68
2023/07/19 00:47:40;;;;;;;5.97;5.47;;;28.80;63.80;;;;;;5043249;28;20831;-70
2023/07/19 00:50:10;;;;;;;5.50;4.90;;;28.80;63.80;;;;;;5049831;28;20869;-68
2023/07/19 00:52:40;;;;;;;5.60;5.10;;;28.80;63.70;;;;;;5036577;28;20989;-68
2023/07/19 00:55:10;;;;;;;6.40;5.40;;;28.80;63.80;;;;;;5030106;28;20481;-69
2023/07/19 00:57:38;;;;;;;5.57;5.07;;;28.80;63.80;;;;;;5030798;28;20836;-67
2023/07/19 01:00:08;;;;;;;4.50;4.20;;;28.80;63.70;;;;;;5035468;28;20465;-67
2023/07/19 01:02:37;;;;;;;5.20;4.70;;;28.80;63.70;;;;;;5052099;28;20470;-68
2023/07/19 01:05:06;;;;;;;4.97;4.60;;;28.70;63.70;;;;;;5050041;28;20458;-68
2023/07/19 01:07:35;;;;;;;5.17;4.67;;;28.70;63.80;;;;;;5048253;28;21086;-71
2023/07/19 01:10:06;;;;;;;5.50;4.87;;;28.70;63.80;;;;;;5034814;28;20462;-69
2023/07/19 01:12:34;;;;;;;5.03;4.53;;;28.70;63.80;;;;;;5052052;28;20470;-68
2023/07/19 01:15:08;;;;;;;6.27;5.43;;;28.70;63.70;;;;;;5038588;28;20550;-70
2023/07/19 01:17:36;;;;;;;5.87;4.80;;;28.70;63.70;;;;;;5048391;28;20468;-69
2023/07/19 01:20:06;;;;;;;6.10;4.80;;;28.70;63.70;;;;;;5025914;28;20477;-68
2023/07/19 01:22:37;;;;;;;4.63;4.27;;;28.70;63.70;;;;;;5052974;28;20467;-68
2023/07/19 01:25:06;;;;;;;4.60;4.20;;;28.70;63.80;;;;;;5025888;28;20460;-67
2023/07/19 01:27:34;;;;;;;4.20;3.83;;;28.70;63.70;;;;;;5053660;28;20476;-68
2023/07/19 01:30:03;;;;;;;6.27;4.70;;;28.70;63.70;;;;;;5051355;28;20465;-70
2023/07/19 01:32:31;;;;;;;6.80;6.10;;;28.70;63.70;;;;;;5045430;28;20456;-67
2023/07/19 01:34:59;;;;;;;6.70;4.83;;;28.70;63.70;;;;;;5055987;28;20470;-67
2023/07/19 01:37:28;;;;;;;4.63;4.23;;;28.70;63.60;;;;;;5051512;28;20472;-69
2023/07/19 01:39:58;;;;;;;5.13;4.63;;;28.70;63.70;;;;;;5054200;28;20470;-68
2023/07/19 01:42:27;;;;;;;5.20;4.80;;;28.60;63.60;;;;;;5040736;28;20463;-68
2023/07/19 01:44:55;;;;;;;4.73;4.33;;;28.60;63.60;;;;;;5037577;28;20463;-68
2023/07/19 01:47:25;;;;;;;5.30;4.80;;;28.60;63.70;;;;;;5054589;28;20820;-68
2023/07/19 01:49:54;;;;;;;6.10;5.00;;;28.60;63.70;;;;;;5039863;28;20824;-71
2023/07/19 01:52:22;;;;;;;5.17;4.77;;;28.60;63.70;;;;;;5051066;28;20459;-68
2023/07/19 01:54:52;;;;;;;5.10;4.60;;;28.60;63.70;;;;;;5033368;28;20503;-71
2023/07/19 01:57:24;;;;;;;5.80;5.20;;;28.60;63.70;;;;;;5036719;28;21153;-67
2023/07/19 01:59:53;;;;;;;5.37;4.70;;;28.60;63.70;;;;;;5034932;28;20484;-68
2023/07/19 02:02:21;;;;;;;5.83;5.33;;;28.60;63.70;;;;;;5033362;28;20570;-68
2023/07/19 02:04:50;;;;;;;5.20;4.63;;;28.60;63.70;;;;;;5026717;28;20466;-68
2023/07/19 02:07:18;;;;;;;5.33;4.90;;;28.60;63.70;;;;;;5049428;28;20465;-68
2023/07/19 02:09:46;;;;;;;4.37;4.07;;;28.60;63.80;;;;;;5037746;28;20541;-69
2023/07/19 02:12:15;;;;;;;5.30;4.80;;;28.60;63.80;;;;;;5040857;28;20456;-67
2023/07/19 02:14:44;;;;;;;5.37;4.90;;;28.60;63.80;;;;;;5032915;28;20458;-68
2023/07/19 02:17:12;;;;;;;5.20;4.73;;;28.60;63.80;;;;;;5038065;28;20981;-67
2023/07/19 02:19:41;;;;;;;6.70;4.50;;;28.60;63.70;;;;;;5048906;28;20873;-69
2023/07/19 02:22:10;;;;;;;5.20;4.80;;;28.60;63.70;;;;;;5022107;28;20465;-68
2023/07/19 02:24:39;;;;;;;4.47;4.07;;;28.50;63.80;;;;;;5026612;28;20782;-67
2023/07/19 02:27:07;;;;;;;4.87;4.47;;;28.50;63.70;;;;;;5034795;28;20465;-68
2023/07/19 02:29:35;;;;;;;5.70;5.20;;;28.50;63.80;;;;;;5046231;28;20458;-67
2023/07/19 02:32:05;;;;;;;5.90;5.37;;;28.50;63.80;;;;;;5049001;28;20520;-69
2023/07/19 02:34:34;;;;;;;5.40;4.90;;;28.50;63.80;;;;;;5045422;28;20484;-70
2023/07/19 02:37:02;;;;;;;5.33;4.87;;;28.50;63.80;;;;;;5047424;28;20462;-68
2023/07/19 02:39:30;;;;;;;5.50;5.00;;;28.50;63.80;;;;;;5034836;28;20492;-67
2023/07/19 02:41:58;;;;;;;5.70;5.10;;;28.50;63.80;;;;;;5048458;28;20450;-67
2023/07/19 02:44:26;;;;;;;5.53;5.13;;;28.50;63.80;;;;;;5041189;28;20570;-70
2023/07/19 02:46:55;;;;;;;5.53;4.63;;;28.50;63.70;;;;;;5048922;28;20467;-68
2023/07/19 02:49:24;;;;;;;4.87;4.47;;;28.50;63.80;;;;;;5049525;28;20467;-67
2023/07/19 02:51:53;;;;;;;5.53;5.13;;;28.50;63.80;;;;;;5043633;28;20527;-70
2023/07/19 02:54:21;;;;;;;5.23;4.80;;;28.50;63.80;;;;;;5045461;28;20463;-68
2023/07/19 02:56:49;;;;;;;6.13;5.37;;;28.50;63.80;;;;;;5046376;28;20481;-68
2023/07/19 02:59:17;;;;;;;6.03;5.43;;;28.50;63.80;;;;;;5047101;28;20491;-68
2023/07/19 03:01:45;;;;;;;5.57;5.07;;;28.40;63.80;;;;;;5043573;28;20492;-67
2023/07/19 03:04:13;;;;;;;5.80;5.17;;;28.50;63.80;;;;;;5050301;28;20458;-68
2023/07/19 03:06:43;;;;;;;5.40;4.90;;;28.50;63.80;;;;;;5045131;28;20470;-70
2023/07/19 03:09:14;;;;;;;5.60;5.03;;;28.40;63.90;;;;;;5047179;28;20455;-68
2023/07/19 03:11:42;;;;;;;5.77;5.20;;;28.40;63.90;;;;;;5046948;28;21001;-67
2023/07/19 03:14:10;;;;;;;5.60;5.10;;;28.40;63.90;;;;;;5037061;28;20488;-67
2023/07/19 03:16:38;;;;;;;5.33;4.93;;;28.40;63.90;;;;;;5028119;28;21064;-69
2023/07/19 03:19:07;;;;;;;5.27;4.80;;;28.40;63.90;;;;;;5039963;28;20517;-68
2023/07/19 03:21:35;;;;;;;6.43;5.70;;;28.40;63.90;;;;;;5029639;28;20488;-68
2023/07/19 03:24:05;;;;;;;5.80;5.03;;;28.40;63.90;;;;;;5044653;28;20456;-71
2023/07/19 03:26:33;;;;;;;4.70;4.30;;;28.40;64.00;;;;;;5025260;28;20474;-68
2023/07/19 03:29:02;;;;;;;5.87;5.20;;;28.40;64.00;;;;;;5042569;28;20466;-68
2023/07/19 03:31:30;;;;;;;5.53;5.07;;;28.40;64.00;;;;;;5037962;28;20458;-68
2023/07/19 03:33:59;;;;;;;6.63;4.70;;;28.40;64.00;;;;;;5047112;28;20456;-67
2023/07/19 03:36:27;;;;;;;5.60;4.63;;;28.40;64.00;;;;;;5033016;28;20820;-68
2023/07/19 03:38:55;;;;;;;5.10;4.70;;;28.40;64.00;;;;;;5039151;28;20551;-68
2023/07/19 03:41:25;;;;;;;5.20;4.80;;;28.40;64.00;;;;;;5008813;28;20471;-67
2023/07/19 03:43:53;;;;;;;4.73;4.33;;;28.30;64.10;;;;;;4997139;28;20495;-67
2023/07/19 03:46:22;;;;;;;5.77;5.27;;;28.30;64.10;;;;;;5003941;28;20468;-68
2023/07/19 03:48:50;;;;;;;5.70;5.20;;;28.30;64.00;;;;;;5029969;28;20464;-67
2023/07/19 03:51:20;;;;;;;6.40;5.57;;;28.30;64.00;;;;;;5016598;28;20468;-68
2023/07/19 03:53:49;;;;;;;4.97;4.47;;;28.30;64.10;;;;;;5009348;28;21013;-67
2023/07/19 03:56:17;;;;;;;6.00;5.43;;;28.30;64.00;;;;;;5027901;28;20510;-68
2023/07/19 03:58:49;;;;;;;5.50;5.00;;;28.30;64.10;;;;;;5010305;28;20474;-67
2023/07/19 04:01:17;;;;;;;7.23;5.30;;;28.30;64.10;;;;;;5002969;28;21796;-72
2023/07/19 04:03:46;;;;;;;6.00;5.40;;;28.30;64.20;;;;;;5008024;28;20461;-68
2023/07/19 04:06:18;;;;;;;6.57;5.90;;;28.30;64.20;;;;;;5032067;28;20527;-68
2023/07/19 04:08:46;;;;;;;5.63;5.20;;;28.30;64.10;;;;;;5029463;28;20472;-68
2023/07/19 04:11:14;;;;;;;6.73;5.90;;;28.30;64.10;;;;;;5010006;28;20471;-70
2023/07/19 04:13:44;;;;;;;5.67;5.17;;;28.30;64.20;;;;;;5033383;28;20460;-68
2023/07/19 04:16:13;;;;;;;5.97;5.37;;;28.30;64.20;;;;;;5009321;28;20487;-67
2023/07/19 04:18:42;;;;;;;6.50;5.90;;;28.30;64.20;;;;;;5007351;28;20465;-67
2023/07/19 04:21:10;;;;;;;5.50;5.10;;;28.30;64.30;;;;;;5004694;28;20987;-69
2023/07/19 04:23:40;;;;;;;6.80;6.20;;;28.30;64.30;;;;;;5005560;28;20466;-69
2023/07/19 04:26:08;;;;;;;5.50;5.10;;;28.30;64.30;;;;;;5006277;28;20490;-68
2023/07/19 04:28:37;;;;;;;5.40;5.00;;;28.30;64.30;;;;;;5007907;28;20469;-68
2023/07/19 04:31:05;;;;;;;5.93;5.23;;;28.30;64.40;;;;;;5009930;28;20963;-68
2023/07/19 04:33:35;;;;;;;6.27;5.77;;;28.30;64.30;;;;;;5019076;28;20460;-67
2023/07/19 04:36:12;;;;;;;6.20;5.60;;;28.30;64.30;;;;;;5013190;28;20548;-68
2023/07/19 04:38:42;;;;;;;6.40;5.80;;;28.30;64.30;;;;;;5036676;28;20515;-67
2023/07/19 04:41:11;;;;;;;5.57;5.07;;;28.30;64.30;;;;;;5030738;28;21001;-70
2023/07/19 04:43:39;;;;;;;5.97;5.47;;;28.30;64.40;;;;;;5031076;28;20468;-67
2023/07/19 04:46:08;;;;;;;6.73;6.13;;;28.30;64.40;;;;;;5023891;28;20465;-67
2023/07/19 04:48:40;;;;;;;6.57;5.87;;;28.30;64.30;;;;;;5047616;28;20548;-67
2023/07/19 04:51:09;;;;;;;5.70;5.20;;;28.30;64.40;;;;;;5026684;28;20823;-66
2023/07/19 04:53:37;;;;;;;6.77;6.07;;;28.30;64.40;;;;;;5029108;28;20974;-70
2023/07/19 04:56:06;;;;;;;6.27;5.67;;;28.20;64.40;;;;;;5022205;28;20517;-68
2023/07/19 04:58:34;;;;;;;5.40;5.07;;;28.30;64.50;;;;;;5022449;28;20459;-68
2023/07/19 05:01:08;;;;;;;6.00;5.23;;;28.20;64.40;;;;;;5021082;28;20484;-70
2023/07/19 05:03:38;;;;;;;6.23;5.50;;;28.30;64.50;;;;;;5029942;28;20480;-68
2023/07/19 05:06:06;;;;;;;7.00;6.03;;;28.30;64.50;;;;;;5027987;28;20961;-70
2023/07/19 05:08:35;;;;;;;7.93;6.37;;;28.30;64.60;;;;;;5054612;28;20528;-68
2023/07/19 05:11:04;;;;;;;6.13;5.53;;;28.30;64.70;;;;;;5030996;28;21046;-68
2023/07/19 05:13:32;;;;;;;6.73;6.03;;;28.30;64.70;;;;;;5022451;28;20820;-69
2023/07/19 05:16:01;;;;;;;6.47;5.97;;;28.30;64.70;;;;;;5036920;28;20550;-71
2023/07/19 05:18:29;;;;;;;6.43;5.60;;;28.30;64.70;;;;;;5031917;28;20522;-68
2023/07/19 05:20:59;;;;;;;6.17;5.60;;;28.30;64.70;;;;;;5021864;28;20543;-69
2023/07/19 05:23:27;;;;;;;6.37;5.60;;;28.30;64.60;;;;;;5023512;28;20519;-69
2023/07/19 05:25:55;;;;;;;6.43;5.83;;;28.30;64.70;;;;;;5039950;28;20461;-70
2023/07/19 05:28:24;;;;;;;6.90;6.30;;;28.30;64.60;;;;;;5039327;28;20515;-69
2023/07/19 05:30:52;;;;;;;6.70;6.10;;;28.30;64.80;;;;;;5040934;28;20484;-70
2023/07/19 05:33:20;;;;;;;7.40;6.80;;;28.30;64.90;;;;;;5040451;28;20457;-68
2023/07/19 05:35:49;;;;;;;6.63;6.13;;;28.30;65.00;;;;;;5039591;28;21250;-69
2023/07/19 05:38:18;;;;;;;7.27;6.57;;;28.30;65.00;;;;;;5025436;28;20843;-68
2023/07/19 05:40:47;;;;;;;6.87;6.37;;;28.30;64.90;;;;;;5041798;28;20460;-69
2023/07/19 05:43:16;;;;;;;7.50;6.57;;;28.30;65.00;;;;;;5033916;28;20467;-68
2023/07/19 05:45:44;;;;;;;7.47;6.53;;;28.30;65.10;;;;;;5039365;28;20462;-69
2023/07/19 05:48:12;;;;;;;8.17;6.13;;;28.30;65.10;;;;;;5043955;28;20944;-69
2023/07/19 05:50:41;;;;;;;7.07;6.17;;;28.30;65.00;;;;;;5039513;28;20455;-73
2023/07/19 05:53:09;;;;;;;6.73;6.13;;;28.30;65.20;;;;;;5042192;28;20466;-73
2023/07/19 05:55:39;;;;;;;6.77;6.17;;;28.30;65.30;;;;;;5042113;28;21380;-69
2023/07/19 05:58:08;;;;;;;6.90;6.20;;;28.30;65.30;;;;;;5036124;28;20807;-68
2023/07/19 06:00:36;;;;;;;6.07;5.60;;;28.40;65.30;;;;;;5041457;28;21196;-69
2023/07/19 06:03:04;;;;;;;7.40;6.70;;;28.40;65.30;;;;;;5044959;28;20992;-67
2023/07/19 06:05:33;;;;;;;6.40;5.90;;;28.40;65.30;;;;;;5042705;28;20458;-69
2023/07/19 06:08:01;;;;;;;7.57;6.50;;;28.40;65.40;;;;;;5044267;28;20462;-72
2023/07/19 06:10:51;;;;;;;7.27;6.10;;;28.40;65.30;;;;;;5043765;28;20470;-68
2023/07/19 06:13:20;;;;;;;7.27;6.67;;;28.40;65.30;;;;;;5046827;28;20465;-67
2023/07/19 06:15:48;;;;;;;6.30;5.80;;;28.40;65.30;;;;;;5044602;28;20451;-68
2023/07/19 06:18:16;;;;;;;8.50;5.97;;;28.40;65.20;;;;;;5043710;28;20472;-71
2023/07/19 06:20:45;;;;;;;6.10;5.60;;;28.40;65.10;;;;;;5045884;28;20461;-67
2023/07/19 06:23:13;;;;;;;6.57;5.73;;;28.40;65.00;;;;;;5046855;28;20525;-67
2023/07/19 06:25:43;;;;;;;7.00;6.40;;;28.40;65.00;;;;;;5044214;28;20465;-69
2023/07/19 06:28:12;;;;;;;6.20;5.60;;;28.50;64.90;;;;;;5040639;28;20465;-68
2023/07/19 06:30:41;;;;;;;6.70;6.10;;;28.50;64.80;;;;;;5043898;28;20472;-67
2023/07/19 06:33:10;;;;;;;6.23;5.67;;;28.50;64.60;;;;;;5044834;28;20456;-68
2023/07/19 06:35:38;;;;;;;6.40;5.60;;;28.50;64.50;;;;;;5036108;28;20527;-71
2023/07/19 06:38:06;;;;;;;5.47;4.93;;;28.50;64.50;;;;;;5035186;28;20490;-70
2023/07/19 06:40:35;;;;;;;5.43;4.93;;;28.50;64.40;;;;;;5022382;28;20462;-68
2023/07/19 06:43:04;;;;;;;6.03;5.53;;;28.50;64.30;;;;;;5025270;28;20536;-68
2023/07/19 06:45:34;;;;;;;5.90;5.40;;;28.50;64.20;;;;;;5028409;28;20471;-71
2023/07/19 06:48:02;;;;;;;6.17;5.67;;;28.50;64.10;;;;;;5020769;28;20459;-67
2023/07/19 06:50:30;;;;;;;5.10;4.67;;;28.50;64.00;;;;;;5004598;28;20546;-67
2023/07/19 06:52:59;;;;;;;5.50;5.10;;;28.50;64.00;;;;;;5029886;28;20454;-68
2023/07/19 06:55:28;;;;;;;5.47;5.07;;;28.50;64.00;;;;;;5011765;28;20471;-68
2023/07/19 06:57:56;;;;;;;5.07;4.67;;;28.60;64.00;;;;;;5023122;28;20551;-71
2023/07/19 07:00:25;;;;;;;8.17;5.10;;;28.60;63.90;;;;;;5013329;28;20554;-69
2023/07/19 07:02:54;;;;;;;5.67;4.50;;;28.50;63.80;;;;;;5026711;28;20475;-67
2023/07/19 07:05:23;;;;;;;5.20;4.77;;;28.50;63.70;;;;;;5006134;28;20500;-67
2023/07/19 07:07:51;;;;;;;5.80;4.50;;;28.60;63.60;;;;;;5024192;28;20458;-67
2023/07/19 07:10:19;;;;;;;4.90;4.50;;;28.60;63.50;;;;;;5021893;28;20460;-71
2023/07/19 07:12:47;;;;;;;6.60;4.77;;;28.60;63.50;;;;;;5028114;28;20951;-69
2023/07/19 07:15:15;;;;;;;5.40;5.00;;;28.60;63.50;;;;;;5029845;28;20462;-67
2023/07/19 07:17:45;;;;;;;5.60;4.50;;;28.60;63.40;;;;;;5031465;28;20522;-68
2023/07/19 07:20:14;;;;;;;5.27;4.80;;;28.60;63.40;;;;;;5028049;28;20961;-67
2023/07/19 07:22:42;;;;;;;4.60;4.20;;;28.60;63.40;;;;;;5027489;28;20586;-67
2023/07/19 07:25:12;;;;;;;4.73;4.23;;;28.60;63.30;;;;;;5019631;28;20457;-72
2023/07/19 07:27:40;;;;;;;4.57;4.17;;;28.60;63.30;;;;;;5026415;28;20467;-68
2023/07/19 07:30:09;;;;;;;5.27;4.87;;;28.60;63.20;;;;;;5030104;28;20465;-67
2023/07/19 07:32:38;;;;;;;5.87;5.17;;;28.70;63.20;;;;;;5023299;28;20514;-70
2023/07/19 07:35:07;;;;;;;5.63;4.17;;;28.70;63.10;;;;;;5033300;28;20486;-69
2023/07/19 07:37:36;;;;;;;4.93;4.43;;;28.60;63.10;;;;;;5025040;28;20463;-68
2023/07/19 07:40:06;;;;;;;5.07;4.57;;;28.70;63.10;;;;;;5041487;28;20451;-70
2023/07/19 07:42:34;;;;;;;4.27;3.97;;;28.60;63.10;;;;;;5042401;28;20577;-68
2023/07/19 07:45:03;;;;;;;4.27;3.87;;;28.60;63.10;;;;;;5046989;28;20517;-69
2023/07/19 07:47:31;;;;;;;4.63;4.23;;;28.60;63.10;;;;;;5052336;28;20463;-68
2023/07/19 07:50:02;;;;;;;4.80;4.40;;;28.60;63.10;;;;;;5038439;28;20463;-68
2023/07/19 07:52:31;;;;;;;4.33;3.87;;;28.60;63.20;;;;;;5044476;28;20454;-68
2023/07/19 07:55:01;;;;;;;4.60;4.30;;;28.70;63.10;;;;;;5047513;28;20467;-68
2023/07/19 07:57:30;;;;;;;4.80;4.20;;;28.70;63.10;;;;;;5048200;28;20462;-68
2023/07/19 07:59:58;;;;;;;4.40;4.00;;;28.70;63.00;;;;;;5042530;28;20461;-68
2023/07/19 08:02:26;;;;;;;4.10;3.80;;;28.70;62.90;;;;;;5046911;28;20529;-69
2023/07/19 08:04:54;;;;;;;4.43;3.97;;;28.80;62.80;;;;;;5050628;28;20462;-68
2023/07/19 08:07:25;;;;;;;3.97;3.57;;;28.80;62.80;;;;;;5045029;28;20474;-67
2023/07/19 08:09:53;;;;;;;4.60;4.20;;;28.80;62.80;;;;;;5049592;28;20484;-67
2023/07/19 08:12:24;;;;;;;4.30;3.90;;;28.80;62.70;;;;;;5048815;28;20460;-68
2023/07/19 08:14:52;;;;;;;4.50;3.97;;;28.80;62.70;;;;;;5047572;28;21205;-67
2023/07/19 08:17:20;;;;;;;4.67;4.17;;;28.80;62.70;;;;;;5044962;28;20853;-67
2023/07/19 08:19:48;;;;;;;4.83;4.43;;;28.80;62.70;;;;;;5053261;28;20487;-67
2023/07/19 08:22:27;;;;;;;4.20;3.90;;;28.80;62.70;;;;;;5030832;28;20512;-69
2023/07/19 08:24:55;;;;;;;4.27;3.87;;;28.90;62.70;;;;;;5041631;28;20799;-68
2023/07/19 08:27:34;;;;;;;4.40;4.00;;;28.80;62.60;;;;;;5052370;28;20462;-69
2023/07/19 08:30:05;;;;;;;4.43;3.80;;;28.80;62.70;;;;;;5022853;28;20466;-67
2023/07/19 08:32:33;;;;;;;4.23;3.83;;;28.80;62.70;;;;;;5042878;28;20461;-68
2023/07/19 08:35:02;;;;;;;3.57;3.27;;;28.80;62.70;;;;;;5046638;28;20954;-67
2023/07/19 08:37:30;;;;;;;4.03;3.73;;;28.80;62.70;;;;;;5023722;28;20474;-68
2023/07/19 08:40:00;;;;;;;4.10;3.73;;;28.80;62.60;;;;;;5051473;28;20475;-67
2023/07/19 08:42:29;;;;;;;4.27;3.87;;;28.80;62.60;;;;;;5047344;28;20457;-70
2023/07/19 08:44:59;;;;;;;4.70;4.17;;;28.80;62.60;;;;;;5047718;28;20962;-69
2023/07/19 08:47:28;;;;;;;4.67;3.67;;;28.80;62.60;;;;;;5047622;28;21024;-70
2023/07/19 08:49:57;;;;;;;4.00;3.67;;;28.90;62.60;;;;;;5047205;28;20452;-68
2023/07/19 08:52:27;;;;;;;4.30;3.50;;;28.80;62.50;;;;;;5046488;28;20472;-67
2023/07/19 08:54:56;;;;;;;4.57;4.23;;;28.90;62.50;;;;;;5047027;28;20499;-69
2023/07/19 08:57:24;;;;;;;3.87;3.57;;;28.90;62.50;;;;;;5046179;28;20457;-71
2023/07/19 08:59:52;;;;;;;4.30;3.97;;;28.90;62.40;;;;;;5049016;28;20461;-68
2023/07/19 09:02:22;;;;;;;4.73;4.33;;;28.90;62.40;;;;;;5050002;28;20464;-67
2023/07/19 09:05:07;;;;;;;4.37;3.97;;;28.90;62.40;;;;;;5044332;28;21032;-67
2023/07/19 09:07:36;;;;;;;3.83;3.40;;;28.90;62.30;;;;;;5049045;28;20986;-68
2023/07/19 09:10:06;;;;;;;4.20;3.80;;;28.90;62.30;;;;;;5046524;28;20538;-67
2023/07/19 09:12:38;;;;;;;4.03;3.73;;;28.90;62.30;;;;;;5041732;28;21233;-68
2023/07/19 09:15:08;;;;;;;4.27;3.57;;;28.80;62.30;;;;;;5052771;28;20902;-67
2023/07/19 09:17:38;;;;;;;3.90;3.50;;;28.80;62.30;;;;;;5054757;28;20791;-67
2023/07/19 09:20:08;;;;;;;4.10;3.47;;;28.80;62.30;;;;;;5049267;28;20472;-70
2023/07/19 09:22:37;;;;;;;4.53;4.20;;;28.80;62.20;;;;;;5054669;28;20484;-67
2023/07/19 09:25:08;;;;;;;3.70;3.40;;;28.80;62.20;;;;;;5045910;28;20533;-67
2023/07/19 09:27:41;;;;;;;4.20;3.80;;;28.80;62.20;;;;;;5045595;28;20465;-68
2023/07/19 09:30:10;;;;;;;3.50;3.30;;;28.80;62.20;;;;;;5054431;28;20514;-68
2023/07/19 09:32:40;;;;;;;3.57;3.27;;;28.80;62.20;;;;;;5043702;28;20467;-67
2023/07/19 09:35:09;;;;;;;4.43;4.03;;;28.80;62.20;;;;;;5052550;28;20464;-68
2023/07/19 09:37:38;;;;;;;3.77;3.47;;;28.80;62.20;;;;;;5046945;28;20497;-69
2023/07/19 09:40:07;;;;;;;4.10;3.80;;;28.80;62.20;;;;;;5047204;28;20563;-71
2023/07/19 09:42:39;;;;;;;3.20;3.00;;;28.80;62.20;;;;;;5045501;28;20469;-68
2023/07/19 09:45:09;;;;;;;3.83;3.53;;;28.80;62.10;;;;;;5047396;28;20478;-67
2023/07/19 09:47:37;;;;;;;3.10;2.90;;;28.80;62.10;;;;;;5044479;28;20496;-67
2023/07/19 09:50:08;;;;;;;3.67;3.40;;;28.80;62.20;;;;;;5050211;28;20493;-69
2023/07/19 09:52:38;;;;;;;3.40;3.20;;;28.80;62.20;;;;;;5044169;28;20523;-68
2023/07/19 09:55:07;;;;;;;3.90;3.00;;;28.80;62.20;;;;;;5048895;28;20455;-68
2023/07/19 09:57:39;;;;;;;3.33;3.03;;;28.80;62.20;;;;;;5054375;28;20496;-67
2023/07/19 10:00:10;;;;;;;3.80;3.50;;;28.80;62.10;;;;;;5051347;28;20438;-68
2023/07/19 10:02:38;;;;;;;3.40;3.20;;;28.80;62.10;;;;;;5051790;28;20551;-68
2023/07/19 10:05:09;;;;;;;3.10;2.90;;;28.80;62.10;;;;;;5050431;28;20481;-67
2023/07/19 10:07:38;;;;;;;3.63;3.33;;;28.80;62.00;;;;;;5043707;28;20497;-69
2023/07/19 10:10:20;;;;;;;3.20;2.87;;;28.90;62.00;;;;;;5051989;28;20961;-68
2023/07/19 10:12:50;;;;;;;3.50;3.20;;;28.80;62.10;;;;;;5021882;28;20872;-67
2023/07/19 10:15:19;;;;;;;3.93;3.63;;;28.80;62.00;;;;;;5032177;28;20457;-68
2023/07/19 10:17:59;;;;;;;3.03;2.80;;;28.90;62.00;;;;;;5042178;28;20558;-68
2023/07/19 10:20:32;;;;;;;3.20;3.00;;;28.90;62.00;;;;;;5049759;28;20456;-67
2023/07/19 10:23:03;;;;;;;3.20;3.00;;;28.90;62.00;;;;;;5050321;28;20960;-68
2023/07/19 10:25:34;;;;;;;3.50;3.30;;;28.90;62.00;;;;;;5046153;28;20475;-67
2023/07/19 10:28:04;;;;;;;3.07;2.87;;;28.90;61.90;;;;;;5043361;28;20962;-67
2023/07/19 10:30:52;;;;;;;3.33;3.03;;;28.90;61.90;;;;;;5043472;28;20460;-69
2023/07/19 10:33:22;;;;;;;3.30;3.10;;;28.90;61.90;;;;;;5037879;28;20455;-68
2023/07/19 10:35:53;;;;;;;4.07;3.73;;;28.90;62.00;;;;;;5035440;28;20549;-68
2023/07/19 10:38:23;;;;;;;3.23;3.03;;;28.90;61.60;;;;;;5034815;28;21047;-68
2023/07/19 10:40:55;;;;;;;4.03;3.70;;;28.90;61.40;;;;;;5041052;28;20482;-67
2023/07/19 10:43:24;;;;;;;3.10;2.90;;;28.80;61.00;;;;;;5018748;28;20537;-68
2023/07/19 10:46:13;;;;;;;2.80;2.53;;;28.80;60.20;;;;;;5050844;28;20459;-67
2023/07/19 10:48:45;;;;;;;3.77;3.47;;;28.80;60.40;;;;;;5036989;28;20514;-77
2023/07/19 10:51:15;;;;;;;3.80;3.07;;;28.90;60.50;;;;;;5042285;28;20481;-77
2023/07/19 10:53:45;;;;;;;4.27;3.53;;;28.90;60.30;;;;;;5041500;28;20460;-77
2023/07/19 10:56:14;;;;;;;3.23;2.93;;;29.00;60.40;;;;;;5042924;28;20485;-76
2023/07/19 10:58:42;;;;;;;3.43;3.13;;;29.00;60.50;;;;;;5048533;28;20490;-76
2023/07/19 11:01:11;;;;;;;4.77;2.50;;;29.10;60.70;;;;;;5045465;28;20455;-77
2023/07/19 11:03:45;;;;;;;2.93;2.73;;;29.20;60.70;;;;;;5020178;28;20462;-76
2023/07/19 11:06:15;;;;;;;3.30;3.10;;;29.20;60.80;;;;;;5042870;28;20469;-76
2023/07/19 11:08:44;;;;;;;4.00;3.70;;;29.30;60.80;;;;;;5039454;28;20462;-75
2023/07/19 11:11:13;;;;;;;3.33;3.03;;;29.30;60.90;;;;;;5044493;28;20465;-77
2023/07/19 11:13:42;;;;;;;2.50;2.30;;;29.30;60.90;;;;;;5046060;28;20466;-77
2023/07/19 11:16:11;;;;;;;3.40;3.20;;;29.30;61.00;;;;;;5045297;28;20465;-76
2023/07/19 11:18:41;;;;;;;2.97;2.73;;;29.30;61.10;;;;;;5047211;28;20525;-74
2023/07/19 11:21:10;;;;;;;5.50;2.43;;;29.30;61.20;;;;;;5036140;28;20484;-78
2023/07/19 11:23:41;;;;;;;3.37;2.77;;;29.40;61.30;;;;;;5045879;28;20481;-77
2023/07/19 11:26:12;;;;;;;3.37;3.07;;;29.40;61.30;;;;;;5047888;28;20481;-77
2023/07/19 11:28:44;;;;;;;3.53;2.93;;;29.50;61.20;;;;;;5047531;28;20452;-77
2023/07/19 11:31:28;;;;;;;4.17;3.00;;;29.40;61.30;;;;;;5045902;28;20456;-77
2023/07/19 11:34:06;;;;;;;3.20;2.90;;;29.40;61.40;;;;;;5038689;28;20454;-80
2023/07/19 11:36:34;;;;;;;3.40;3.07;;;29.40;61.40;;;;;;5038181;28;20471;-78
2023/07/19 11:39:04;;;;;;;3.33;2.60;;;29.40;61.50;;;;;;5016517;28;20974;-75
2023/07/19 11:41:33;;;;;;;5.80;3.20;;;29.40;61.50;;;;;;5031999;28;20494;-79
2023/07/19 11:44:02;;;;;;;3.30;2.60;;;29.40;61.50;;;;;;5006175;28;20532;-78
2023/07/19 11:46:31;;;;;;;2.83;2.63;;;29.40;61.60;;;;;;5026851;28;20487;-78
2023/07/19 11:48:59;;;;;;;5.30;2.90;;;29.50;61.60;;;;;;5032038;28;20471;-80
2023/07/19 11:51:27;;;;;;;3.63;2.67;;;29.50;61.50;;;;;;5026014;28;20463;-78
2023/07/19 11:53:56;;;;;;;2.27;2.07;;;29.50;61.60;;;;;;5019968;28;20480;-77
2023/07/19 11:56:25;;;;;;;3.10;2.80;;;29.60;61.60;;;;;;5020815;28;20477;-78
2023/07/19 11:58:57;;;;;;;2.67;2.47;;;29.60;61.50;;;;;;5015470;28;20492;-78
2023/07/19 12:01:26;;;;;;;2.70;2.50;;;29.70;61.50;;;;;;5025629;28;20471;-78
2023/07/19 12:03:59;;;;;;;3.23;2.60;;;29.70;61.40;;;;;;5020949;28;20456;-81
2023/07/19 12:06:28;;;;;;;3.23;2.87;;;29.80;61.30;;;;;;5028423;28;20472;-83
2023/07/19 12:08:57;;;;;;;3.43;3.23;;;29.90;60.90;;;;;;5018629;28;20561;-79
2023/07/19 12:11:26;;;;;;;2.93;2.63;;;30.00;60.50;;;;;;5021850;28;20467;-82
2023/07/19 12:13:56;;;;;;;3.33;3.00;;;30.20;60.20;;;;;;5007737;28;20841;-82
2023/07/19 12:16:25;;;;;;;3.40;2.80;;;30.40;59.80;;;;;;5011644;28;20463;-86
2023/07/19 12:18:54;;;;;;;2.53;2.33;;;30.60;59.50;;;;;;5030166;28;20574;-82
2023/07/19 12:21:22;;;;;;;2.80;2.50;;;30.80;59.00;;;;;;5028807;28;20505;-81
2023/07/19 12:23:52;;;;;;;3.00;2.80;;;31.00;58.60;;;;;;5029274;28;20465;-82
2023/07/19 12:26:23;;;;;;;4.07;3.70;;;31.10;58.30;;;;;;5022113;28;20523;-81
2023/07/19 12:28:56;;;;;;;3.57;3.10;;;31.20;58.00;;;;;;5025817;28;20459;-83
2023/07/19 12:31:25;;;;;;;2.87;2.30;;;31.30;57.80;;;;;;5024066;28;20467;-82
2023/07/19 12:33:53;;;;;;;2.63;2.43;;;31.40;57.60;;;;;;5025944;28;20537;-77
2023/07/19 12:36:21;;;;;;;3.00;2.80;;;31.40;57.40;;;;;;5010102;28;20533;-68
2023/07/19 12:38:50;;;;;;;5.07;3.00;;;31.40;57.40;;;;;;5033262;28;20490;-68
2023/07/19 12:41:18;;;;;;;3.27;3.07;;;31.50;57.30;;;;;;5047431;28;20464;-69
2023/07/19 12:43:47;;;;;;;3.20;2.90;;;31.40;57.10;;;;;;5041069;28;20463;-69
2023/07/19 12:46:18;;;;;;;2.87;2.67;;;31.30;56.60;;;;;;5042679;28;20515;-73
2023/07/19 12:48:48;;;;;;;3.40;3.10;;;31.10;56.40;;;;;;5045649;28;20463;-70
2023/07/19 12:51:16;;;;;;;3.50;3.20;;;31.00;56.60;;;;;;5045228;28;20452;-68
2023/07/19 12:53:44;;;;;;;3.80;3.50;;;30.80;56.90;;;;;;5047990;28;20496;-70
2023/07/19 12:56:13;;;;;;;3.37;3.10;;;30.60;57.20;;;;;;5043707;28;20467;-68
2023/07/19 12:58:41;;;;;;;3.10;2.90;;;30.50;57.60;;;;;;5047599;28;20572;-69